createdAt,value
2022-07-30T00:00:42.201Z,16.30
2022-07-30T00:03:44.072Z,16.20
2022-07-30T00:06:45.952Z,16.10
2022-07-30T00:09:47.695Z,16.20
2022-07-30T00:12:49.865Z,16.00
2022-07-30T00:15:51.561Z,15.90
2022-07-30T00:18:53.316Z,15.90
2022-07-30T00:21:55.616Z,16.00
2022-07-30T00:24:57.397Z,15.90
2022-07-30T00:27:59.378Z,15.80
2022-07-30T00:31:01.246Z,15.80
2022-07-30T00:34:03.045Z,15.80
2022-07-30T00:37:04.743Z,15.80
2022-07-30T00:40:08.593Z,15.90
2022-07-30T00:43:16.319Z,15.80
2022-07-30T00:46:18.332Z,15.80
2022-07-30T00:49:20.713Z,15.80
2022-07-30T00:52:23.233Z,15.60
2022-07-30T00:55:25.037Z,15.60
2022-07-30T00:58:26.870Z,15.60
2022-07-30T01:01:28.656Z,15.60
2022-07-30T01:04:31.065Z,15.60
2022-07-30T01:07:33.197Z,15.50
2022-07-30T01:10:35.194Z,15.50
2022-07-30T01:13:37.111Z,15.40
2022-07-30T01:16:41.962Z,15.30
2022-07-30T01:19:48.575Z,15.40
2022-07-30T01:22:59.237Z,15.30
2022-07-30T01:26:07.480Z,15.30
2022-07-30T01:29:10.465Z,15.40
2022-07-30T01:32:14.548Z,15.30
2022-07-30T01:35:19.346Z,15.30
2022-07-30T01:38:24.902Z,15.10
2022-07-30T01:41:27.853Z,15.00
2022-07-30T01:44:29.909Z,15.00
2022-07-30T01:47:34.243Z,14.90
2022-07-30T01:50:36.970Z,14.90
2022-07-30T01:53:41.577Z,15.00
2022-07-30T01:56:46.035Z,14.90
2022-07-30T01:59:51.907Z,14.90
2022-07-30T02:02:54.543Z,14.90
2022-07-30T02:06:04.790Z,14.90
2022-07-30T02:09:11.070Z,14.80
2022-07-30T02:12:30.538Z,14.80
2022-07-30T02:15:48.689Z,14.70
2022-07-30T02:19:06.344Z,14.70
2022-07-30T02:22:15.229Z,14.80
2022-07-30T02:25:22.317Z,14.80
2022-07-30T02:28:24.811Z,14.80
2022-07-30T02:31:28.739Z,14.60
2022-07-30T02:34:38.967Z,15.90
2022-07-30T02:37:44.444Z,14.60
2022-07-30T02:40:47.989Z,14.50
2022-07-30T02:43:52.051Z,14.50
2022-07-30T02:46:57.461Z,14.60
2022-07-30T02:50:06.953Z,14.70
2022-07-30T02:53:15.715Z,14.60
2022-07-30T02:56:19.671Z,14.50
2022-07-30T02:59:23.089Z,14.50
2022-07-30T03:02:29.392Z,14.50
2022-07-30T03:05:32.058Z,14.60
2022-07-30T03:08:35.457Z,14.60
2022-07-30T03:11:38.362Z,14.60
2022-07-30T03:14:40.533Z,14.50
2022-07-30T03:17:45.196Z,14.60
2022-07-30T03:20:50.350Z,14.40
2022-07-30T03:23:54.883Z,14.30
2022-07-30T03:26:57.864Z,14.30
2022-07-30T03:30:02.395Z,13.10
2022-07-30T03:33:05.935Z,14.30
2022-07-30T03:36:09.816Z,14.20
2022-07-30T03:39:12.248Z,14.10
2022-07-30T03:42:15.114Z,14.10
2022-07-30T03:45:18.783Z,14.20
2022-07-30T03:48:21.608Z,14.20
2022-07-30T03:51:23.545Z,14.10
2022-07-30T03:54:26.029Z,14.10
2022-07-30T03:57:51.381Z,14.00
2022-07-30T04:00:59.422Z,14.10
2022-07-30T04:04:07.459Z,14.20
2022-07-30T04:07:09.740Z,14.10
2022-07-30T04:10:11.579Z,14.20
2022-07-30T04:13:33.262Z,14.20
2022-07-30T04:16:48.668Z,14.20
2022-07-30T04:19:57.657Z,14.20
2022-07-30T04:22:59.822Z,14.10
2022-07-30T04:26:02.999Z,14.20
2022-07-30T04:29:08.219Z,14.10
2022-07-30T04:32:10.553Z,14.20
2022-07-30T04:35:50.985Z,14.20
2022-07-30T04:39:01.334Z,14.10
2022-07-30T04:42:03.212Z,14.10
2022-07-30T04:45:11.938Z,14.10
2022-07-30T04:48:26.691Z,14.10
2022-07-30T04:51:43.177Z,14.10
2022-07-30T04:54:51.446Z,14.20
2022-07-30T04:57:54.952Z,14.30
2022-07-30T05:00:58.959Z,14.40
2022-07-30T05:04:05.369Z,14.40
2022-07-30T05:07:08.040Z,14.50
2022-07-30T05:10:11.590Z,14.60
2022-07-30T05:13:14.621Z,14.60
2022-07-30T05:16:17.713Z,14.80
2022-07-30T05:19:20.473Z,14.90
2022-07-30T05:22:22.513Z,14.90
2022-07-30T05:25:24.401Z,15.20
2022-07-30T05:28:29.797Z,15.20
2022-07-30T05:31:35.134Z,15.20
2022-07-30T05:34:38.069Z,15.30
2022-07-30T05:37:41.229Z,15.30
2022-07-30T05:40:44.364Z,15.50
2022-07-30T05:44:04.896Z,15.50
2022-07-30T05:47:06.653Z,15.70
2022-07-30T05:50:09.143Z,15.80
2022-07-30T05:53:10.931Z,15.90
2022-07-30T05:56:40.800Z,16.00
2022-07-30T05:59:50.385Z,16.10
2022-07-30T06:03:10.741Z,16.10
2022-07-30T06:06:31.035Z,16.00
2022-07-30T06:09:37.104Z,16.00
2022-07-30T06:12:42.300Z,16.00
2022-07-30T06:15:44.528Z,16.20
2022-07-30T06:18:46.317Z,16.20
2022-07-30T06:22:05.536Z,16.30
2022-07-30T06:25:11.297Z,16.30
2022-07-30T06:28:35.921Z,16.40
2022-07-30T06:31:35.457Z,16.50
2022-07-30T06:34:37.207Z,16.30
2022-07-30T06:38:05.702Z,16.30
2022-07-30T06:41:04.556Z,16.50
2022-07-30T06:44:24.305Z,16.60
2022-07-30T06:47:48.601Z,16.40
2022-07-30T06:50:51.254Z,16.50
2022-07-30T06:53:53.209Z,16.50
2022-07-30T06:57:23.676Z,16.60
2022-07-30T07:00:26.346Z,16.60
2022-07-30T07:03:39.702Z,16.80
2022-07-30T07:06:42.413Z,16.80
2022-07-30T07:09:46.010Z,16.80
2022-07-30T07:13:10.743Z,16.80
2022-07-30T07:16:12.581Z,16.80
2022-07-30T07:20:01.182Z,16.80
2022-07-30T07:22:40.298Z,17.00
2022-07-30T07:25:43.671Z,17.00
2022-07-30T07:28:45.388Z,17.00
2022-07-30T07:32:06.919Z,16.90
2022-07-30T07:35:09.829Z,17.00
2022-07-30T07:38:14.965Z,17.20
2022-07-30T07:41:17.585Z,17.10
2022-07-30T07:44:19.598Z,17.30
2022-07-30T07:47:21.325Z,17.20
2022-07-30T07:50:38.514Z,17.40
2022-07-30T07:53:42.124Z,17.30
2022-07-30T07:56:44.569Z,17.50
2022-07-30T07:59:48.084Z,17.80
2022-07-30T08:03:00.300Z,18.00
2022-07-30T08:06:06.228Z,17.80
2022-07-30T08:09:44.717Z,18.10
2022-07-30T08:13:49.105Z,18.20
2022-07-30T08:16:37.678Z,18.10
2022-07-30T08:20:04.087Z,18.10
2022-07-30T08:23:06.642Z,18.10
2022-07-30T08:26:08.567Z,18.30
2022-07-30T08:29:14.149Z,18.30
2022-07-30T08:32:18.888Z,18.20
2022-07-30T08:35:24.669Z,18.10
2022-07-30T08:38:26.445Z,18.20
2022-07-30T08:41:28.601Z,18.40
2022-07-30T08:44:32.342Z,18.60
2022-07-30T08:47:41.210Z,18.60
2022-07-30T08:50:46.152Z,18.80
2022-07-30T08:54:08.259Z,19.00
2022-07-30T08:57:11.123Z,19.00
2022-07-30T09:00:14.697Z,18.90
2022-07-30T09:03:16.722Z,19.30
2022-07-30T09:06:19.422Z,19.50
2022-07-30T09:09:21.253Z,19.70
2022-07-30T09:12:39.619Z,19.80
2022-07-30T09:15:41.544Z,19.90
2022-07-30T09:18:44.340Z,19.60
2022-07-30T09:22:17.216Z,20.00
2022-07-30T09:25:44.292Z,20.30
2022-07-30T09:29:17.619Z,20.60
2022-07-30T09:32:54.317Z,20.80
2022-07-30T09:36:18.649Z,20.80
2022-07-30T09:39:40.895Z,21.10
2022-07-30T09:43:09.445Z,21.40
2022-07-30T09:46:12.976Z,21.00
2022-07-30T09:49:19.913Z,21.30
2022-07-30T09:52:29.630Z,21.20
2022-07-30T09:55:36.464Z,21.30
2022-07-30T09:58:45.699Z,21.60
2022-07-30T10:01:54.923Z,22.00
2022-07-30T10:05:24.895Z,21.60
2022-07-30T10:08:42.134Z,22.50
2022-07-30T10:11:47.882Z,22.90
2022-07-30T10:14:53.076Z,23.20
2022-07-30T10:17:56.188Z,23.40
2022-07-30T10:21:19.710Z,23.70
2022-07-30T10:24:40.856Z,23.60
2022-07-30T10:28:04.320Z,23.90
2022-07-30T10:31:08.277Z,24.40
2022-07-30T10:34:33.901Z,25.00
2022-07-30T10:37:39.055Z,24.70
2022-07-30T10:40:57.164Z,24.90
2022-07-30T10:44:17.420Z,25.40
2022-07-30T10:47:20.078Z,25.70
2022-07-30T10:50:26.758Z,25.60
2022-07-30T10:53:37.303Z,25.70
2022-07-30T10:56:39.565Z,26.30
2022-07-30T10:59:52.761Z,26.20
2022-07-30T11:03:15.989Z,25.80
2022-07-30T11:06:24.279Z,25.60
2022-07-30T11:09:49.727Z,25.50
2022-07-30T11:13:07.368Z,25.90
2022-07-30T11:16:09.237Z,26.10
2022-07-30T11:19:53.422Z,26.00
2022-07-30T11:22:40.579Z,25.10
2022-07-30T11:25:51.537Z,24.90
2022-07-30T11:28:56.500Z,24.80
2022-07-30T11:32:29.654Z,24.80
2022-07-30T11:35:35.055Z,24.50
2022-07-30T11:39:03.343Z,24.30
2022-07-30T11:42:24.943Z,24.10
2022-07-30T11:45:29.313Z,23.80
2022-07-30T11:48:31.828Z,23.40
2022-07-30T11:51:45.058Z,23.20
2022-07-30T11:54:54.124Z,23.60
2022-07-30T11:57:57.391Z,23.70
2022-07-30T12:01:01.983Z,23.70
2022-07-30T12:04:08.892Z,23.70
2022-07-30T12:07:10.696Z,23.60
2022-07-30T12:10:27.015Z,23.60
2022-07-30T12:13:45.359Z,23.80
2022-07-30T12:16:52.395Z,23.70
2022-07-30T12:19:54.128Z,23.80
2022-07-30T12:22:56.921Z,23.80
2022-07-30T12:25:58.856Z,23.70
2022-07-30T12:29:03.189Z,23.70
2022-07-30T12:32:05.354Z,23.70
2022-07-30T12:35:07.469Z,23.80
2022-07-30T12:38:10.133Z,23.70
2022-07-30T12:41:12.025Z,23.70
2022-07-30T12:44:36.839Z,23.70
2022-07-30T12:47:38.701Z,23.90
2022-07-30T12:50:40.597Z,23.80
2022-07-30T12:53:42.405Z,23.70
2022-07-30T12:57:05.689Z,23.80
2022-07-30T13:00:08.667Z,23.90
2022-07-30T13:03:27.847Z,23.60
2022-07-30T13:06:29.913Z,23.70
2022-07-30T13:09:31.665Z,23.70
2022-07-30T13:12:33.408Z,23.80
2022-07-30T13:15:35.170Z,24.10
2022-07-30T13:18:38.557Z,24.00
2022-07-30T13:21:49.601Z,24.00
2022-07-30T13:24:51.865Z,24.20
2022-07-30T13:27:53.615Z,24.20
2022-07-30T13:30:56.881Z,24.40
2022-07-30T13:33:59.007Z,24.60
2022-07-30T13:37:01.137Z,24.30
2022-07-30T13:40:03.350Z,24.50
2022-07-30T13:43:05.123Z,24.60
2022-07-30T13:46:06.859Z,24.40
2022-07-30T13:49:08.744Z,24.40
2022-07-30T13:52:11.697Z,24.50
2022-07-30T13:55:13.851Z,24.50
2022-07-30T13:58:15.558Z,24.50
2022-07-30T14:01:18.371Z,24.50
2022-07-30T14:04:20.273Z,24.50
2022-07-30T14:07:22.123Z,24.50
2022-07-30T14:10:24.202Z,24.50
2022-07-30T14:13:26.023Z,24.50
2022-07-30T14:16:45.452Z,24.40
2022-07-30T14:19:47.655Z,24.40
2022-07-30T14:22:49.526Z,24.50
2022-07-30T14:25:51.313Z,24.50
2022-07-30T14:28:53.056Z,24.50
2022-07-30T14:31:55.522Z,24.60
2022-07-30T14:34:57.408Z,24.70
2022-07-30T14:37:59.201Z,24.70
2022-07-30T14:41:00.948Z,24.50
2022-07-30T14:44:03.021Z,24.70
2022-07-30T14:47:05.321Z,24.70
2022-07-30T14:50:09.604Z,24.80
2022-07-30T14:53:11.394Z,25.00
2022-07-30T14:56:13.617Z,24.70
2022-07-30T14:59:16.720Z,24.80
2022-07-30T15:02:18.489Z,24.70
2022-07-30T15:05:20.288Z,24.70
2022-07-30T15:08:22.002Z,24.70
2022-07-30T15:11:24.329Z,24.70
2022-07-30T15:14:28.273Z,24.70
2022-07-30T15:17:30.261Z,24.90
2022-07-30T15:20:32.128Z,24.90
2022-07-30T15:23:33.868Z,24.90
2022-07-30T15:26:35.653Z,24.70
2022-07-30T15:29:37.493Z,24.60
2022-07-30T15:32:39.884Z,24.60
2022-07-30T15:35:41.851Z,24.70
2022-07-30T15:38:43.652Z,24.80
2022-07-30T15:41:47.936Z,24.90
2022-07-30T15:45:15.249Z,24.80
2022-07-30T15:48:15.561Z,24.70
2022-07-30T15:51:27.707Z,24.60
2022-07-30T15:54:29.487Z,24.70
2022-07-30T15:57:31.631Z,24.70
2022-07-30T16:00:33.349Z,24.70
2022-07-30T16:03:38.842Z,24.70
2022-07-30T16:06:41.602Z,24.90
2022-07-30T16:09:43.353Z,24.80
2022-07-30T16:12:45.120Z,24.70
2022-07-30T16:15:46.845Z,24.60
2022-07-30T16:18:48.618Z,24.60
2022-07-30T16:21:50.432Z,24.80
2022-07-30T16:24:52.485Z,24.90
2022-07-30T16:27:54.327Z,24.90
2022-07-30T16:30:56.157Z,24.80
2022-07-30T16:33:58.000Z,24.80
2022-07-30T16:36:59.940Z,24.70
2022-07-30T16:40:06.276Z,24.70
2022-07-30T16:43:08.017Z,24.60
2022-07-30T16:46:10.903Z,24.70
2022-07-30T16:49:12.693Z,24.80
2022-07-30T16:52:15.823Z,24.90
2022-07-30T16:55:17.564Z,24.90
2022-07-30T16:58:19.368Z,24.90
2022-07-30T17:01:23.226Z,24.80
2022-07-30T17:04:24.983Z,24.70
2022-07-30T17:07:28.269Z,24.70
2022-07-30T17:10:29.967Z,24.60
2022-07-30T17:13:34.150Z,24.60
2022-07-30T17:16:35.982Z,24.50
2022-07-30T17:19:38.245Z,24.40
2022-07-30T17:22:43.043Z,24.40
2022-07-30T17:25:45.135Z,24.20
2022-07-30T17:28:46.883Z,24.20
2022-07-30T17:31:48.645Z,24.10
2022-07-30T17:34:50.751Z,24.00
2022-07-30T17:37:52.742Z,23.90
2022-07-30T17:40:54.912Z,23.80
2022-07-30T17:43:56.754Z,23.80
2022-07-30T17:46:58.655Z,23.70
2022-07-30T17:50:00.378Z,23.60
2022-07-30T17:53:03.631Z,23.60
2022-07-30T17:56:06.039Z,23.50
2022-07-30T17:59:13.810Z,23.50
2022-07-30T18:02:15.844Z,23.40
2022-07-30T18:05:18.563Z,23.40
2022-07-30T18:08:20.820Z,23.30
2022-07-30T18:11:23.944Z,23.20
2022-07-30T18:14:26.013Z,22.70
2022-07-30T18:17:27.978Z,23.30
2022-07-30T18:20:30.804Z,23.20
2022-07-30T18:23:34.713Z,23.10
2022-07-30T18:26:38.494Z,23.20
2022-07-30T18:29:41.110Z,23.10
2022-07-30T18:32:46.024Z,23.00
2022-07-30T18:35:48.004Z,23.00
2022-07-30T18:38:49.703Z,22.90
2022-07-30T18:41:53.051Z,22.90
2022-07-30T18:44:54.793Z,22.90
2022-07-30T18:47:56.585Z,22.80
2022-07-30T18:50:58.333Z,22.70
2022-07-30T18:54:00.083Z,22.70
2022-07-30T18:57:02.256Z,22.70
2022-07-30T19:00:09.856Z,22.60
2022-07-30T19:03:31.585Z,22.60
2022-07-30T19:06:33.389Z,22.50
2022-07-30T19:09:35.344Z,22.40
2022-07-30T19:12:37.117Z,22.40
2022-07-30T19:15:39.415Z,22.20
2022-07-30T19:18:41.136Z,22.20
2022-07-30T19:21:42.891Z,22.20
2022-07-30T19:24:44.614Z,22.10
2022-07-30T19:27:46.506Z,22.00
2022-07-30T19:30:48.269Z,23.20
2022-07-30T19:33:50.143Z,22.00
2022-07-30T19:36:51.857Z,21.90
2022-07-30T19:40:05.624Z,21.80
2022-07-30T19:43:09.376Z,21.70
2022-07-30T19:46:12.024Z,21.70
2022-07-30T19:49:14.263Z,21.60
2022-07-30T19:52:22.636Z,21.60
2022-07-30T19:55:30.777Z,21.60
2022-07-30T19:58:36.684Z,21.50
2022-07-30T20:01:40.586Z,21.50
2022-07-30T20:04:43.544Z,21.50
2022-07-30T20:07:45.684Z,21.40
2022-07-30T20:10:48.087Z,21.40
2022-07-30T20:13:49.805Z,21.50
2022-07-30T20:16:51.525Z,21.40
2022-07-30T20:19:54.132Z,21.30
2022-07-30T20:22:59.883Z,21.20
2022-07-30T20:26:04.361Z,21.20
2022-07-30T20:29:18.748Z,21.10
2022-07-30T20:32:22.861Z,21.00
2022-07-30T20:35:26.404Z,21.20
2022-07-30T20:38:29.415Z,21.20
2022-07-30T20:41:31.519Z,21.20
2022-07-30T20:44:49.396Z,21.10
2022-07-30T20:47:56.587Z,21.00
2022-07-30T20:50:58.468Z,21.00
2022-07-30T20:54:00.197Z,21.20
2022-07-30T20:57:04.399Z,21.10
2022-07-30T21:00:08.335Z,21.20
2022-07-30T21:03:13.707Z,21.10
2022-07-30T21:06:16.316Z,21.10
2022-07-30T21:09:18.200Z,21.00
2022-07-30T21:12:33.005Z,21.10
2022-07-30T21:15:36.195Z,21.00
2022-07-30T21:18:50.203Z,20.80
2022-07-30T21:21:54.221Z,20.90
2022-07-30T21:24:56.207Z,20.90
2022-07-30T21:27:58.414Z,21.00
2022-07-30T21:31:01.534Z,20.90
2022-07-30T21:34:03.907Z,20.90
2022-07-30T21:37:05.652Z,20.90
2022-07-30T21:40:09.128Z,20.90
2022-07-30T21:43:11.433Z,20.80
2022-07-30T21:46:14.117Z,20.80
2022-07-30T21:49:15.893Z,20.80
2022-07-30T21:52:17.653Z,20.70
2022-07-30T21:55:19.381Z,20.70
2022-07-30T21:58:25.804Z,20.70
2022-07-30T22:05:08.246Z,20.70
2022-07-30T22:08:12.876Z,20.50
2022-07-30T22:11:18.692Z,20.50
2022-07-30T22:14:20.418Z,20.40
2022-07-30T22:17:23.726Z,20.30
2022-07-30T22:20:38.764Z,20.40
2022-07-30T22:23:41.164Z,20.40
2022-07-30T22:27:01.165Z,20.30
2022-07-30T22:30:04.886Z,20.30
2022-07-30T22:33:18.417Z,20.40
2022-07-30T22:36:25.225Z,20.30
2022-07-30T22:42:50.065Z,20.30
2022-07-30T22:45:51.881Z,20.20
2022-07-30T22:48:56.614Z,21.50
2022-07-30T22:52:06.888Z,20.20
2022-07-30T22:55:22.004Z,20.10
2022-07-30T22:58:26.180Z,20.10
2022-07-30T23:01:28.238Z,19.90
2022-07-30T23:04:30.029Z,20.00
2022-07-30T23:07:35.952Z,19.90
2022-07-30T23:10:41.799Z,20.00
2022-07-30T23:12:29.024Z,20.30
2022-07-30T23:12:31.990Z,20.60
2022-07-30T23:13:43.571Z,19.90
2022-07-30T23:16:50.397Z,19.80
2022-07-30T23:19:52.280Z,19.80
2022-07-30T23:22:54.025Z,19.70
2022-07-30T23:25:55.721Z,19.80
2022-07-30T23:28:57.421Z,19.80
2022-07-30T23:31:59.117Z,19.90
2022-07-30T23:35:00.831Z,19.70
2022-07-30T23:38:02.608Z,19.70
2022-07-30T23:41:05.553Z,19.70
2022-07-30T23:44:07.327Z,19.70
2022-07-30T23:47:09.086Z,19.70
2022-07-30T23:50:10.780Z,19.60
2022-07-30T23:53:12.509Z,19.60
2022-07-30T23:56:15.323Z,19.60
2022-07-30T23:59:17.049Z,19.60
